Time;durP1;ratioP1;P1;durP2;ratioP2;P2;SDS_P1;SDS_P2;PMS_P1;PMS_P2;Temp;Humidity;BMP_temperature;BMP_pressure;BME280_temperature;BME280_humidity;BME280_pressure;Samples;Min_cycle;Max_cycle;Signal;HPM_P1;HPM_P2
2022/11/07 00:01:31;;;;;;;4.93;4.63;;;10.00;99.90;;;;;;5031293;28;20183;-67
2022/11/07 00:03:57;;;;;;;4.63;4.40;;;10.00;99.90;;;;;;5032326;28;20176;-67
2022/11/07 00:06:23;;;;;;;5.47;5.27;;;10.00;99.90;;;;;;5032954;28;20198;-66
2022/11/07 00:08:50;;;;;;;4.60;4.30;;;9.90;99.90;;;;;;5032248;28;20269;-67
2022/11/07 00:11:15;;;;;;;4.97;4.73;;;9.90;99.90;;;;;;5031112;28;20184;-66
2022/11/07 00:13:41;;;;;;;4.70;4.50;;;9.80;99.90;;;;;;5031009;28;20186;-67
2022/11/07 00:16:09;;;;;;;5.70;4.80;;;9.80;99.90;;;;;;5031227;28;20207;-66
2022/11/07 00:18:35;;;;;;;4.97;4.77;;;9.70;99.90;;;;;;5031021;28;20203;-67
2022/11/07 00:21:09;;;;;;;5.57;5.37;;;9.70;99.90;;;;;;5012281;28;20177;-66
2022/11/07 00:23:38;;;;;;;5.20;4.90;;;9.60;99.90;;;;;;5012532;28;20196;-67
2022/11/07 00:26:06;;;;;;;5.47;5.17;;;9.60;99.90;;;;;;5032083;28;20566;-66
2022/11/07 00:28:33;;;;;;;4.70;4.50;;;9.50;99.90;;;;;;5031084;28;20227;-66
2022/11/07 00:30:58;;;;;;;4.70;4.50;;;9.60;99.90;;;;;;5030529;28;20238;-66
2022/11/07 00:33:24;;;;;;;4.70;4.50;;;9.60;99.90;;;;;;5030641;28;20187;-67
2022/11/07 00:35:50;;;;;;;5.83;5.17;;;9.60;99.90;;;;;;5031993;28;20206;-66
2022/11/07 00:38:15;;;;;;;5.10;4.90;;;9.60;99.90;;;;;;5030567;28;20207;-66
2022/11/07 00:40:41;;;;;;;4.90;4.70;;;9.60;99.90;;;;;;5030659;28;20183;-66
2022/11/07 00:43:07;;;;;;;4.70;4.50;;;9.60;99.90;;;;;;5030276;28;20252;-67
2022/11/07 00:45:33;;;;;;;6.27;4.57;;;9.60;99.90;;;;;;5031011;28;20187;-66
2022/11/07 00:47:58;;;;;;;4.83;4.57;;;9.50;99.90;;;;;;5031639;28;20199;-66
2022/11/07 00:50:24;;;;;;;4.67;4.47;;;9.60;99.90;;;;;;5032011;28;20207;-66
2022/11/07 00:52:50;;;;;;;4.60;4.40;;;9.70;99.90;;;;;;5030609;28;20660;-67
2022/11/07 00:55:15;;;;;;;5.00;4.80;;;9.70;99.90;;;;;;5030744;28;20328;-67
2022/11/07 00:57:41;;;;;;;4.53;4.33;;;9.80;99.90;;;;;;5031574;28;20199;-67
2022/11/07 01:00:07;;;;;;;4.60;4.30;;;9.90;99.90;;;;;;5031353;28;20221;-67
2022/11/07 01:02:33;;;;;;;5.73;5.20;;;10.00;99.90;;;;;;5030571;28;20551;-66
2022/11/07 01:05:10;;;;;;;5.63;4.57;;;10.10;99.90;;;;;;5030196;28;20258;-66
2022/11/07 01:07:38;;;;;;;4.70;4.50;;;10.20;99.90;;;;;;5030840;28;20214;-67
2022/11/07 01:10:05;;;;;;;5.00;4.80;;;10.30;99.90;;;;;;5029972;28;20183;-66
2022/11/07 01:12:33;;;;;;;5.83;4.63;;;10.40;99.90;;;;;;5031807;28;20175;-66
2022/11/07 01:14:58;;;;;;;5.57;4.97;;;10.50;99.90;;;;;;5031141;28;20187;-67
2022/11/07 01:17:24;;;;;;;4.80;4.60;;;10.60;99.90;;;;;;5031656;28;20170;-67
2022/11/07 01:19:50;;;;;;;5.63;5.33;;;10.60;99.90;;;;;;5029945;28;20171;-66
2022/11/07 01:22:15;;;;;;;5.43;5.00;;;10.60;99.90;;;;;;5031889;28;20218;-67
2022/11/07 01:24:41;;;;;;;5.47;5.13;;;10.60;99.90;;;;;;5031396;28;20222;-67
2022/11/07 01:27:07;;;;;;;5.77;5.47;;;10.60;99.90;;;;;;5031404;28;20536;-67
2022/11/07 01:29:32;;;;;;;6.40;6.00;;;10.60;99.90;;;;;;5031086;28;20271;-67
2022/11/07 01:31:58;;;;;;;5.13;4.93;;;10.50;99.90;;;;;;5029963;28;20183;-67
2022/11/07 01:34:23;;;;;;;5.40;5.00;;;10.50;99.90;;;;;;5030476;28;20198;-66
2022/11/07 01:36:49;;;;;;;4.73;4.53;;;10.40;99.90;;;;;;5036610;28;20304;-67
2022/11/07 01:39:15;;;;;;;5.03;4.73;;;10.30;99.90;;;;;;5033874;28;20197;-66
2022/11/07 01:41:41;;;;;;;4.40;4.20;;;10.30;99.90;;;;;;5035497;28;20183;-66
2022/11/07 01:44:06;;;;;;;5.10;4.90;;;10.20;99.90;;;;;;5034895;28;20171;-67
2022/11/07 01:46:34;;;;;;;5.00;4.70;;;10.10;99.90;;;;;;5034031;28;20350;-66
2022/11/07 01:49:12;;;;;;;5.17;4.93;;;10.10;99.90;;;;;;5033848;28;20195;-67
2022/11/07 01:51:44;;;;;;;4.60;4.40;;;10.00;99.90;;;;;;5034211;28;20651;-67
2022/11/07 01:54:12;;;;;;;5.20;4.80;;;9.90;99.90;;;;;;5034847;28;20190;-66
2022/11/07 01:56:40;;;;;;;4.90;4.60;;;9.80;99.90;;;;;;5035266;28;20203;-66
2022/11/07 01:59:08;;;;;;;7.63;4.43;;;9.70;99.90;;;;;;5034469;28;20266;-67
2022/11/07 02:01:34;;;;;;;4.67;4.37;;;9.60;99.90;;;;;;5035075;28;20179;-66
2022/11/07 02:04:01;;;;;;;4.30;4.10;;;9.50;99.90;;;;;;5034840;28;20321;-67
2022/11/07 02:06:38;;;;;;;5.00;4.60;;;9.40;99.90;;;;;;5033981;28;20523;-66
2022/11/07 02:09:04;;;;;;;5.23;4.97;;;9.40;99.90;;;;;;5034466;28;20298;-67
2022/11/07 02:11:30;;;;;;;5.97;5.63;;;9.30;99.90;;;;;;5034939;28;20262;-66
2022/11/07 02:13:56;;;;;;;5.50;5.00;;;9.30;99.90;;;;;;5034325;28;20207;-66
2022/11/07 02:16:21;;;;;;;6.03;5.77;;;9.20;99.90;;;;;;5034960;28;20611;-66
2022/11/07 02:18:47;;;;;;;8.30;6.17;;;9.20;99.90;;;;;;5034597;28;20647;-66
2022/11/07 02:21:17;;;;;;;5.43;5.17;;;9.10;99.90;;;;;;5034254;28;20206;-66
2022/11/07 02:24:21;;;;;;;6.17;5.67;;;9.10;99.90;;;;;;5034410;28;20254;-66
2022/11/07 02:26:46;;;;;;;6.00;5.70;;;9.10;99.90;;;;;;5012299;28;20207;-66
2022/11/07 02:29:12;;;;;;;6.03;5.57;;;9.10;99.90;;;;;;5012037;28;20228;-66
2022/11/07 02:31:38;;;;;;;6.37;6.03;;;9.10;99.90;;;;;;5022255;28;20644;-66
2022/11/07 02:34:03;;;;;;;6.70;6.10;;;9.00;99.90;;;;;;5033053;28;20186;-66
2022/11/07 02:36:29;;;;;;;5.37;5.17;;;9.00;99.90;;;;;;5034249;28;20203;-66
2022/11/07 02:38:58;;;;;;;5.00;4.80;;;9.00;99.90;;;;;;5034312;28;20282;-66
2022/11/07 02:41:29;;;;;;;5.80;5.50;;;8.90;99.90;;;;;;5033837;28;20649;-66
2022/11/07 02:44:01;;;;;;;5.30;4.90;;;8.90;99.90;;;;;;5032908;28;20237;-66
2022/11/07 02:46:29;;;;;;;7.30;5.47;;;8.90;99.90;;;;;;5032648;28;20186;-67
2022/11/07 02:48:57;;;;;;;5.00;4.80;;;8.90;99.90;;;;;;5032684;28;20206;-67
2022/11/07 02:51:23;;;;;;;7.27;5.60;;;8.80;99.90;;;;;;5033708;28;20266;-66
2022/11/07 02:53:49;;;;;;;5.40;5.10;;;8.80;99.90;;;;;;5034049;28;20218;-66
2022/11/07 02:56:15;;;;;;;5.67;5.30;;;8.80;99.90;;;;;;5033994;28;20289;-66
2022/11/07 02:58:41;;;;;;;4.90;4.70;;;8.80;99.90;;;;;;5033767;28;20188;-66
2022/11/07 03:01:06;;;;;;;5.47;5.07;;;8.80;99.90;;;;;;5033524;28;20220;-67
2022/11/07 03:03:38;;;;;;;5.47;5.17;;;8.80;99.90;;;;;;5033776;28;20179;-66
2022/11/07 03:06:05;;;;;;;4.97;4.77;;;8.80;99.90;;;;;;5033752;28;20179;-66
2022/11/07 03:08:30;;;;;;;5.30;4.90;;;8.80;99.90;;;;;;5032155;28;20211;-66
2022/11/07 03:10:56;;;;;;;5.87;4.90;;;8.70;99.90;;;;;;5033484;28;20198;-67
2022/11/07 03:13:22;;;;;;;6.33;5.70;;;8.80;99.90;;;;;;5033587;28;20175;-66
2022/11/07 03:15:49;;;;;;;5.10;4.87;;;8.80;99.90;;;;;;5034122;28;20253;-67
2022/11/07 03:18:15;;;;;;;6.13;5.53;;;8.80;99.90;;;;;;5037797;28;20191;-72
2022/11/07 03:20:40;;;;;;;6.20;5.73;;;8.70;99.90;;;;;;5040055;28;20179;-69
2022/11/07 03:23:07;;;;;;;6.30;5.90;;;8.70;99.90;;;;;;5039393;28;20645;-68
2022/11/07 03:25:32;;;;;;;6.50;6.20;;;8.70;99.90;;;;;;5040130;28;20190;-73
2022/11/07 03:27:58;;;;;;;5.87;5.43;;;8.60;99.90;;;;;;5038160;28;20199;-70
2022/11/07 03:30:23;;;;;;;6.10;5.80;;;8.60;99.90;;;;;;5039987;28;20171;-71
2022/11/07 03:32:53;;;;;;;5.67;5.47;;;8.50;99.90;;;;;;5038744;28;20198;-71
2022/11/07 03:35:19;;;;;;;6.00;5.70;;;8.40;99.90;;;;;;5037996;28;20203;-70
2022/11/07 03:37:46;;;;;;;5.73;5.43;;;8.40;99.90;;;;;;5037869;28;20200;-70
2022/11/07 03:40:12;;;;;;;6.70;6.20;;;8.30;99.90;;;;;;5038729;28;20175;-70
2022/11/07 03:42:42;;;;;;;5.50;5.20;;;8.30;99.90;;;;;;5038846;28;20179;-71
2022/11/07 03:45:10;;;;;;;5.27;4.87;;;8.20;99.90;;;;;;5038189;28;20178;-71
2022/11/07 03:47:39;;;;;;;5.33;5.13;;;8.10;99.90;;;;;;5018288;28;20250;-70
2022/11/07 03:50:08;;;;;;;5.90;5.40;;;8.10;99.90;;;;;;5017958;28;20242;-72
2022/11/07 03:52:34;;;;;;;5.87;5.47;;;8.00;99.90;;;;;;5039782;28;20202;-70
2022/11/07 03:54:59;;;;;;;6.27;5.77;;;8.00;99.90;;;;;;5039345;28;20212;-70
2022/11/07 03:57:25;;;;;;;5.60;5.23;;;8.00;99.90;;;;;;5038152;28;20179;-70
2022/11/07 03:59:51;;;;;;;5.73;5.47;;;7.90;99.90;;;;;;5038894;28;20179;-73
2022/11/07 04:02:17;;;;;;;7.83;5.50;;;7.80;99.90;;;;;;5034199;28;20604;-72
2022/11/07 04:04:42;;;;;;;5.80;5.40;;;7.80;99.90;;;;;;5033678;28;20175;-70
2022/11/07 04:07:08;;;;;;;5.77;5.47;;;7.80;99.90;;;;;;5033923;28;20190;-69
2022/11/07 04:09:33;;;;;;;5.63;5.37;;;7.70;99.90;;;;;;5034940;28;20622;-72
2022/11/07 04:17:28;;;;;;;7.27;6.67;;;8.00;99.90;;;;;;5038493;28;20182;-71
2022/11/07 04:19:55;;;;;;;6.37;5.80;;;8.00;99.90;;;;;;5038144;28;20233;-71
2022/11/07 04:22:22;;;;;;;8.10;5.73;;;8.10;99.90;;;;;;5039301;28;20179;-71
2022/11/07 04:24:48;;;;;;;6.00;5.40;;;8.10;99.90;;;;;;5037033;28;20230;-73
2022/11/07 04:30:17;;;;;;;6.80;6.40;;;8.10;99.90;;;;;;5038604;28;20186;-71
2022/11/07 04:32:46;;;;;;;5.83;5.53;;;8.10;99.90;;;;;;5039479;28;20167;-72
2022/11/07 04:35:13;;;;;;;6.53;5.87;;;8.10;99.90;;;;;;5038527;28;20198;-72
2022/11/07 04:37:39;;;;;;;7.47;5.63;;;8.20;99.90;;;;;;5039578;28;20198;-71
2022/11/07 04:40:05;;;;;;;5.23;4.93;;;8.20;99.90;;;;;;5038962;28;20267;-70
2022/11/07 04:42:31;;;;;;;5.97;5.37;;;8.30;99.90;;;;;;5037746;28;20183;-71
2022/11/07 04:44:57;;;;;;;5.87;5.43;;;8.30;99.90;;;;;;5038093;28;20575;-72
2022/11/07 04:47:22;;;;;;;5.50;5.00;;;8.30;99.90;;;;;;5039014;28;20342;-71
2022/11/07 04:49:48;;;;;;;6.20;5.60;;;8.30;99.90;;;;;;5038954;28;20230;-71
2022/11/07 04:52:14;;;;;;;5.67;5.37;;;8.40;99.90;;;;;;5038448;28;20187;-70
2022/11/07 04:54:39;;;;;;;9.10;5.83;;;8.40;99.90;;;;;;5039113;28;20550;-71
2022/11/07 04:57:05;;;;;;;6.27;5.87;;;8.40;99.90;;;;;;5037760;28;20550;-70
2022/11/07 04:59:30;;;;;;;6.20;5.90;;;8.40;99.90;;;;;;5038345;28;20191;-69
2022/11/07 05:01:56;;;;;;;5.90;5.43;;;8.40;99.90;;;;;;5037180;28;20595;-68
2022/11/07 05:04:22;;;;;;;6.80;6.40;;;8.40;99.90;;;;;;5037108;28;20176;-71
2022/11/07 05:06:47;;;;;;;7.07;6.47;;;8.40;99.90;;;;;;5032979;28;20183;-72
2022/11/07 05:09:17;;;;;;;5.83;5.40;;;8.50;99.90;;;;;;5030897;28;20216;-70
2022/11/07 05:11:44;;;;;;;6.27;5.73;;;8.50;99.90;;;;;;5013667;28;20182;-68
2022/11/07 05:14:09;;;;;;;5.40;5.03;;;8.50;99.90;;;;;;5013730;28;20180;-70
2022/11/07 05:16:35;;;;;;;7.33;6.13;;;8.60;99.90;;;;;;5030927;28;20292;-71
2022/11/07 05:19:01;;;;;;;5.53;5.23;;;8.60;99.90;;;;;;5032823;28;20187;-72
2022/11/07 05:21:26;;;;;;;6.00;5.60;;;8.60;99.90;;;;;;5033088;28;20172;-72
2022/11/07 05:23:52;;;;;;;6.23;5.73;;;8.60;99.90;;;;;;5032502;28;20207;-69
2022/11/07 05:26:18;;;;;;;6.27;5.83;;;8.50;99.90;;;;;;5032562;28;20629;-66
2022/11/07 05:28:44;;;;;;;5.50;5.20;;;8.50;99.90;;;;;;5030548;28;20199;-66
2022/11/07 05:31:14;;;;;;;6.67;5.47;;;8.50;99.90;;;;;;5031150;28;20554;-66
2022/11/07 05:33:40;;;;;;;5.80;5.50;;;8.40;99.90;;;;;;5031769;28;20176;-66
2022/11/07 05:36:11;;;;;;;5.80;5.30;;;8.30;99.90;;;;;;5031265;28;20233;-66
2022/11/07 05:38:39;;;;;;;11.63;6.03;;;8.30;99.90;;;;;;5031507;28;20241;-66
2022/11/07 05:41:05;;;;;;;5.87;5.37;;;8.30;99.90;;;;;;5030793;28;20179;-65
2022/11/07 05:43:30;;;;;;;7.63;6.83;;;8.30;99.90;;;;;;5029981;28;20186;-66
2022/11/07 05:46:00;;;;;;;6.90;6.43;;;8.40;99.90;;;;;;5032432;28;20172;-66
2022/11/07 05:48:25;;;;;;;7.47;5.57;;;8.60;99.90;;;;;;5030604;28;20203;-65
2022/11/07 05:50:51;;;;;;;9.83;5.43;;;8.90;99.90;;;;;;5030878;28;21857;-66
2022/11/07 05:53:19;;;;;;;6.87;5.00;;;9.10;99.90;;;;;;5031333;28;20566;-66
2022/11/07 05:55:46;;;;;;;4.83;4.60;;;9.40;99.90;;;;;;5031045;28;20203;-66
2022/11/07 05:58:12;;;;;;;5.80;4.60;;;9.60;99.90;;;;;;5030001;28;20246;-66
2022/11/07 06:00:38;;;;;;;4.97;4.67;;;9.80;99.90;;;;;;5030823;28;20648;-65
2022/11/07 06:03:04;;;;;;;5.00;4.60;;;10.00;99.90;;;;;;5031283;28;20521;-66
2022/11/07 06:05:29;;;;;;;4.97;4.67;;;10.20;99.90;;;;;;5029618;28;20194;-66
2022/11/07 06:07:55;;;;;;;4.93;4.53;;;10.30;99.90;;;;;;5030818;28;20302;-66
2022/11/07 06:10:21;;;;;;;5.30;5.00;;;10.50;99.90;;;;;;5030454;28;20247;-65
2022/11/07 06:12:57;;;;;;;4.73;4.33;;;10.60;99.90;;;;;;5030011;28;20226;-66
2022/11/07 06:15:22;;;;;;;8.97;4.83;;;10.70;99.90;;;;;;5030608;28;20206;-65
2022/11/07 06:17:48;;;;;;;7.17;4.17;;;10.80;99.90;;;;;;5032036;28;20678;-65
2022/11/07 06:20:13;;;;;;;4.80;4.50;;;10.90;99.90;;;;;;5031580;28;20218;-65
2022/11/07 06:22:39;;;;;;;7.60;4.37;;;10.90;99.90;;;;;;5035063;28;20182;-65
2022/11/07 06:25:05;;;;;;;5.17;4.70;;;11.00;99.90;;;;;;5034285;28;20183;-65
2022/11/07 06:27:30;;;;;;;4.67;4.30;;;11.00;99.90;;;;;;5033609;28;20176;-65
2022/11/07 06:29:56;;;;;;;4.70;4.40;;;11.10;99.90;;;;;;5035527;28;20187;-67
2022/11/07 06:32:22;;;;;;;4.70;4.40;;;11.20;99.90;;;;;;5033482;28;20180;-66
2022/11/07 06:34:47;;;;;;;5.83;4.50;;;11.20;99.90;;;;;;5032986;28;20183;-66
2022/11/07 06:37:13;;;;;;;4.50;4.10;;;11.20;99.90;;;;;;5034448;28;20203;-66
2022/11/07 06:39:39;;;;;;;10.80;4.70;;;11.30;99.90;;;;;;5033985;28;20199;-66
2022/11/07 06:42:04;;;;;;;8.70;4.50;;;11.30;99.90;;;;;;5033267;28;20195;-66
2022/11/07 06:44:30;;;;;;;5.37;4.07;;;11.30;99.90;;;;;;5033982;28;20175;-66
2022/11/07 06:46:55;;;;;;;6.50;5.13;;;11.40;99.90;;;;;;5034406;28;20176;-66
2022/11/07 06:49:21;;;;;;;5.10;4.60;;;11.40;99.90;;;;;;5033930;28;20578;-66
2022/11/07 06:51:46;;;;;;;5.97;4.20;;;11.40;99.90;;;;;;5034325;28;20175;-66
2022/11/07 06:54:12;;;;;;;6.47;4.30;;;11.40;99.90;;;;;;5033354;28;20633;-66
2022/11/07 06:56:38;;;;;;;6.90;4.57;;;11.50;99.90;;;;;;5034177;28;20207;-66
2022/11/07 06:59:04;;;;;;;7.67;4.63;;;11.50;99.90;;;;;;5033687;28;20206;-65
2022/11/07 07:01:29;;;;;;;4.57;4.10;;;11.60;99.90;;;;;;5031874;28;20214;-66
2022/11/07 07:03:55;;;;;;;6.37;3.90;;;11.70;99.90;;;;;;5031785;28;20178;-65
2022/11/07 07:06:20;;;;;;;4.60;4.10;;;11.80;99.90;;;;;;5032319;28;20715;-65
2022/11/07 07:08:46;;;;;;;4.40;4.10;;;11.90;99.90;;;;;;5048196;22;20228;-69
2022/11/07 07:11:14;;;;;;;4.47;4.00;;;12.00;99.90;;;;;;5012601;28;20184;-69
2022/11/07 07:13:40;;;;;;;4.43;4.13;;;12.10;99.90;;;;;;5014075;28;20298;-69
2022/11/07 07:16:07;;;;;;;5.60;4.27;;;12.10;99.90;;;;;;5013721;28;20219;-69
2022/11/07 07:18:34;;;;;;;4.20;4.00;;;12.20;99.90;;;;;;5033634;28;20279;-69
2022/11/07 07:21:04;;;;;;;5.20;4.13;;;12.20;99.90;;;;;;5031531;28;20176;-70
2022/11/07 07:23:30;;;;;;;5.43;4.30;;;12.20;99.90;;;;;;5025678;28;20185;-69
2022/11/07 07:25:55;;;;;;;4.33;4.13;;;12.30;99.90;;;;;;4994273;28;20173;-69
2022/11/07 07:28:21;;;;;;;5.20;4.30;;;12.40;99.90;;;;;;5031315;28;20767;-69
2022/11/07 07:30:47;;;;;;;4.90;4.50;;;12.50;99.90;;;;;;5032004;28;20179;-69
2022/11/07 07:33:12;;;;;;;4.70;4.40;;;12.60;99.90;;;;;;5014279;28;20191;-69
2022/11/07 07:35:38;;;;;;;6.33;4.33;;;12.70;99.90;;;;;;5012668;28;20556;-69
2022/11/07 07:38:03;;;;;;;6.07;4.47;;;12.80;99.90;;;;;;5027592;28;20203;-69
2022/11/07 07:40:29;;;;;;;4.87;4.47;;;12.90;99.90;;;;;;5018761;28;20732;-68
2022/11/07 07:42:55;;;;;;;5.00;3.90;;;13.10;99.90;;;;;;5012082;28;20263;-68
2022/11/07 07:45:20;;;;;;;4.33;3.93;;;13.20;99.90;;;;;;5044947;28;20582;-68
2022/11/07 07:47:46;;;;;;;4.13;3.93;;;13.20;99.90;;;;;;5011996;28;20523;-68
2022/11/07 07:50:12;;;;;;;4.77;3.80;;;13.20;99.90;;;;;;5011831;28;20176;-68
2022/11/07 07:52:38;;;;;;;4.77;4.47;;;13.30;99.90;;;;;;5013204;28;20191;-68
2022/11/07 07:55:06;;;;;;;5.33;4.20;;;13.30;99.90;;;;;;5013327;28;20238;-68
2022/11/07 07:57:40;;;;;;;5.90;4.00;;;13.30;99.90;;;;;;5012209;28;20707;-68
2022/11/07 08:00:07;;;;;;;7.00;4.13;;;13.30;99.90;;;;;;5018256;28;20187;-68
2022/11/07 08:02:32;;;;;;;5.53;4.43;;;13.40;99.90;;;;;;5031135;28;20185;-68
2022/11/07 08:04:58;;;;;;;4.87;4.13;;;13.40;99.90;;;;;;5027348;28;20635;-68
2022/11/07 08:07:23;;;;;;;4.40;4.00;;;13.40;99.90;;;;;;5017657;28;20229;-69
2022/11/07 08:09:49;;;;;;;5.03;4.53;;;13.50;99.90;;;;;;5030912;28;20242;-68
2022/11/07 08:12:14;;;;;;;7.03;4.10;;;13.50;99.90;;;;;;5030931;28;20181;-68
2022/11/07 08:14:40;;;;;;;7.50;4.33;;;13.50;99.90;;;;;;5018433;28;20222;-68
2022/11/07 08:17:05;;;;;;;4.97;4.57;;;13.50;99.90;;;;;;5011230;28;20566;-68
2022/11/07 08:19:31;;;;;;;6.90;5.13;;;13.50;99.90;;;;;;5031072;28;20194;-68
2022/11/07 08:21:57;;;;;;;4.27;3.97;;;13.50;99.90;;;;;;5032729;28;20195;-68
2022/11/07 08:24:22;;;;;;;4.43;4.23;;;13.50;99.90;;;;;;5012634;28;20240;-68
2022/11/07 08:26:48;;;;;;;4.30;4.00;;;13.50;99.90;;;;;;5012919;28;20183;-68
2022/11/07 08:29:13;;;;;;;4.83;3.90;;;13.50;99.90;;;;;;5027971;28;20286;-68
2022/11/07 08:31:39;;;;;;;5.33;4.40;;;13.60;99.90;;;;;;5032528;28;20174;-69
2022/11/07 08:34:04;;;;;;;4.43;4.03;;;13.60;99.90;;;;;;5031693;28;20680;-69
2022/11/07 08:36:30;;;;;;;4.90;4.10;;;13.60;99.90;;;;;;5032173;28;20206;-68
2022/11/07 08:38:55;;;;;;;4.60;4.30;;;13.60;99.90;;;;;;5029089;28;20697;-68
2022/11/07 08:41:21;;;;;;;6.90;4.43;;;13.70;99.90;;;;;;5030471;28;20176;-69
2022/11/07 08:43:48;;;;;;;4.30;4.00;;;13.70;99.90;;;;;;5021185;28;20191;-68
2022/11/07 08:46:13;;;;;;;4.00;3.70;;;13.70;99.90;;;;;;5011262;28;20664;-68
2022/11/07 08:48:39;;;;;;;5.20;4.87;;;13.80;99.90;;;;;;5043673;28;20204;-68
2022/11/07 08:51:05;;;;;;;4.37;4.07;;;13.80;99.90;;;;;;5011814;28;20180;-68
2022/11/07 08:53:31;;;;;;;4.63;4.03;;;13.80;99.90;;;;;;5017678;28;20183;-68
2022/11/07 08:56:07;;;;;;;4.53;4.30;;;13.80;99.90;;;;;;5030440;28;20207;-68
2022/11/07 08:58:33;;;;;;;4.80;4.60;;;13.90;99.90;;;;;;5029135;28;20543;-67
2022/11/07 09:00:59;;;;;;;4.77;4.53;;;13.90;99.90;;;;;;5027606;28;20172;-68
2022/11/07 09:03:25;;;;;;;4.60;4.40;;;13.90;99.90;;;;;;5028878;28;20187;-68
2022/11/07 09:05:51;;;;;;;4.77;4.47;;;14.00;99.90;;;;;;5026212;28;20172;-68
2022/11/07 09:08:18;;;;;;;4.47;4.17;;;14.00;99.90;;;;;;5010402;28;20724;-68
2022/11/07 09:10:43;;;;;;;6.37;4.33;;;14.10;99.90;;;;;;5013873;28;20183;-68
2022/11/07 09:13:09;;;;;;;5.23;4.87;;;14.10;99.90;;;;;;5031550;28;20187;-68
2022/11/07 09:15:35;;;;;;;5.23;4.70;;;14.10;99.90;;;;;;5030972;28;20203;-68
2022/11/07 09:18:03;;;;;;;4.97;4.57;;;14.10;99.90;;;;;;5011571;28;20192;-68
2022/11/07 09:20:29;;;;;;;4.17;3.93;;;14.10;99.90;;;;;;5010207;28;20176;-67
2022/11/07 09:22:56;;;;;;;5.53;4.53;;;13.90;99.90;;;;;;5030748;28;20568;-68
2022/11/07 09:25:22;;;;;;;7.13;4.47;;;13.90;99.90;;;;;;5030292;28;20676;-68
2022/11/07 09:27:50;;;;;;;5.53;5.13;;;13.70;99.90;;;;;;5014012;28;20184;-68
2022/11/07 09:30:17;;;;;;;4.00;3.77;;;13.60;99.90;;;;;;5011367;28;20276;-68
2022/11/07 09:32:43;;;;;;;4.40;4.10;;;13.50;99.90;;;;;;5025898;28;20274;-68
2022/11/07 09:35:09;;;;;;;4.13;3.87;;;13.30;99.90;;;;;;5029882;28;20285;-68
2022/11/07 09:37:38;;;;;;;4.17;3.97;;;13.40;99.90;;;;;;5015745;28;20184;-68
2022/11/07 09:40:04;;;;;;;5.03;4.37;;;13.30;99.90;;;;;;5012896;28;20183;-68
2022/11/07 09:43:07;;;;;;;5.00;4.10;;;13.30;99.90;;;;;;5010358;28;20172;-68
2022/11/07 09:45:42;;;;;;;4.83;4.47;;;13.30;99.90;;;;;;5025586;28;20198;-68
2022/11/07 09:48:16;;;;;;;4.33;4.00;;;13.30;99.90;;;;;;5029780;28;20551;-68
2022/11/07 09:50:42;;;;;;;3.87;3.67;;;13.30;99.90;;;;;;5017978;28;20603;-68
2022/11/07 09:53:30;;;;;;;4.70;3.80;;;13.40;99.90;;;;;;5010071;28;20190;-68
2022/11/07 09:56:02;;;;;;;4.87;4.53;;;13.50;99.90;;;;;;5012799;28;20204;-68
2022/11/07 09:58:50;;;;;;;8.97;4.10;;;13.60;99.90;;;;;;5015302;28;20284;-68
2022/11/07 10:01:19;;;;;;;3.90;3.70;;;13.70;99.90;;;;;;5013200;28;20208;-68
2022/11/07 10:03:45;;;;;;;10.63;4.10;;;13.80;99.90;;;;;;5032940;28;20560;-68
2022/11/07 10:06:13;;;;;;;5.53;4.23;;;14.00;99.90;;;;;;5033642;28;20274;-68
2022/11/07 10:09:01;;;;;;;4.40;4.10;;;14.10;99.90;;;;;;5016713;28;20258;-69
2022/11/07 10:11:51;;;;;;;7.03;5.17;;;14.20;99.90;;;;;;5015032;28;20168;-67
2022/11/07 10:14:52;;;;;;;4.67;4.23;;;14.30;99.90;;;;;;4994239;28;20180;-69
2022/11/07 10:17:30;;;;;;;5.97;4.93;;;14.40;99.90;;;;;;5004254;28;20178;-68
2022/11/07 10:19:55;;;;;;;4.37;3.87;;;14.40;99.90;;;;;;5029678;28;20196;-68
2022/11/07 10:22:43;;;;;;;4.80;4.03;;;14.50;99.90;;;;;;5013591;28;20176;-68
2022/11/07 10:25:19;;;;;;;4.60;4.30;;;14.50;99.90;;;;;;5018129;28;20211;-69
2022/11/07 10:27:59;;;;;;;6.90;3.63;;;14.50;99.90;;;;;;5034649;28;20199;-68
2022/11/07 10:30:24;;;;;;;6.20;3.63;;;14.60;99.90;;;;;;5028111;28;20295;-68
2022/11/07 10:32:53;;;;;;;4.57;4.20;;;14.70;99.90;;;;;;5014865;28;20689;-69
2022/11/07 10:35:30;;;;;;;5.87;5.27;;;14.90;99.90;;;;;;5018854;28;20210;-68
2022/11/07 10:38:01;;;;;;;4.10;3.90;;;15.10;99.90;;;;;;5034289;28;20179;-68
2022/11/07 10:40:33;;;;;;;4.67;4.33;;;15.10;99.90;;;;;;5027565;28;20176;-68
2022/11/07 10:43:02;;;;;;;6.57;5.10;;;15.30;99.90;;;;;;5014525;28;20535;-68
2022/11/07 10:45:28;;;;;;;3.77;3.53;;;15.40;99.90;;;;;;5018854;28;20179;-68
2022/11/07 10:47:59;;;;;;;6.57;4.30;;;15.50;99.90;;;;;;5034207;28;20206;-68
2022/11/07 10:50:25;;;;;;;3.60;3.40;;;15.70;99.90;;;;;;5032331;28;20186;-69
2022/11/07 10:52:52;;;;;;;7.33;4.07;;;15.70;99.90;;;;;;5032875;28;20172;-68
2022/11/07 10:55:18;;;;;;;8.00;4.00;;;15.80;99.90;;;;;;5031628;28;20199;-68
2022/11/07 10:57:48;;;;;;;3.83;3.53;;;15.90;99.90;;;;;;5014401;28;20206;-68
2022/11/07 11:00:22;;;;;;;7.70;3.80;;;15.90;99.90;;;;;;5013996;28;20168;-68
2022/11/07 11:02:49;;;;;;;4.30;4.10;;;16.00;99.90;;;;;;5020284;28;20199;-68
2022/11/07 11:05:29;;;;;;;4.10;3.70;;;16.10;99.90;;;;;;5012824;28;20184;-68
2022/11/07 11:07:56;;;;;;;7.03;3.93;;;16.10;99.90;;;;;;5012598;28;20294;-68
2022/11/07 11:10:29;;;;;;;4.37;3.90;;;16.10;99.90;;;;;;5022776;28;20164;-67
2022/11/07 11:12:55;;;;;;;4.00;3.63;;;16.30;99.90;;;;;;5032572;28;20180;-68
2022/11/07 11:15:26;;;;;;;5.90;3.93;;;16.40;99.90;;;;;;5032976;28;20633;-68
2022/11/07 11:18:01;;;;;;;4.73;3.83;;;16.60;99.90;;;;;;5033568;28;20164;-68
2022/11/07 11:20:41;;;;;;;4.30;4.10;;;16.80;99.90;;;;;;4992697;28;20173;-68
2022/11/07 11:23:18;;;;;;;4.10;3.80;;;16.90;99.90;;;;;;5037292;28;20172;-68
2022/11/07 11:25:46;;;;;;;3.83;3.40;;;16.90;99.90;;;;;;5012569;28;20183;-68
2022/11/07 11:28:37;;;;;;;4.47;3.53;;;17.00;99.90;;;;;;5023576;28;20509;-67
2022/11/07 11:31:12;;;;;;;3.77;3.47;;;17.00;99.90;;;;;;5031953;28;20176;-69
2022/11/07 11:33:53;;;;;;;4.23;3.83;;;17.00;99.90;;;;;;5018509;28;20176;-67
2022/11/07 11:36:22;;;;;;;4.57;3.90;;;17.10;99.90;;;;;;5012440;28;20238;-68
2022/11/07 11:38:54;;;;;;;3.57;3.33;;;17.20;99.90;;;;;;5027517;28;20202;-67
2022/11/07 11:41:54;;;;;;;4.07;3.77;;;17.30;99.90;;;;;;5032937;28;20565;-67
2022/11/07 11:44:36;;;;;;;3.57;3.27;;;17.50;99.90;;;;;;5013587;28;20180;-68
2022/11/07 11:47:27;;;;;;;5.63;4.13;;;17.40;99.90;;;;;;5011946;28;20243;-68
2022/11/07 11:50:24;;;;;;;3.73;3.43;;;17.60;99.90;;;;;;5024913;28;20228;-67
2022/11/07 11:52:49;;;;;;;3.57;3.33;;;17.50;99.90;;;;;;5016401;28;20609;-68
2022/11/07 11:55:18;;;;;;;3.50;3.23;;;17.60;99.90;;;;;;5030966;28;20242;-68
2022/11/07 11:57:46;;;;;;;4.17;3.97;;;17.40;99.90;;;;;;5014380;28;20182;-67
2022/11/07 12:00:19;;;;;;;4.03;3.50;;;17.40;99.90;;;;;;5011359;28;20563;-68
2022/11/07 12:03:14;;;;;;;3.70;3.50;;;17.40;99.90;;;;;;5028924;28;20187;-67
2022/11/07 12:05:48;;;;;;;3.63;3.43;;;17.30;99.90;;;;;;5011662;28;20271;-68
2022/11/07 12:08:20;;;;;;;5.13;4.00;;;17.00;99.90;;;;;;5010225;28;20222;-68
2022/11/07 12:11:18;;;;;;;4.03;3.50;;;16.90;99.90;;;;;;5016164;28;20183;-67
2022/11/07 12:14:10;;;;;;;4.70;3.87;;;16.60;99.90;;;;;;5031328;28;20176;-68
2022/11/07 12:17:03;;;;;;;3.57;3.37;;;16.50;99.90;;;;;;5018335;28;20204;-67
2022/11/07 12:19:52;;;;;;;7.00;3.83;;;16.40;99.90;;;;;;5012010;28;20197;-67
2022/11/07 12:22:44;;;;;;;3.43;3.23;;;16.50;99.90;;;;;;5029766;28;20172;-68
2022/11/07 12:25:17;;;;;;;5.43;3.50;;;16.50;99.90;;;;;;5030938;28;20176;-67
2022/11/07 12:28:01;;;;;;;8.93;6.57;;;16.50;99.90;;;;;;4993022;28;20207;-66
2022/11/07 12:30:47;;;;;;;5.83;4.43;;;16.60;99.90;;;;;;4995654;28;20165;-67
2022/11/07 12:33:46;;;;;;;6.03;5.17;;;16.60;99.90;;;;;;5008806;28;20194;-67
2022/11/07 12:36:44;;;;;;;4.53;4.13;;;16.60;99.90;;;;;;5026337;28;20215;-68
2022/11/07 12:39:40;;;;;;;4.20;4.00;;;16.60;99.90;;;;;;5010765;28;20199;-68
2022/11/07 12:42:27;;;;;;;4.20;4.00;;;16.40;99.90;;;;;;5010693;28;20204;-67
2022/11/07 12:45:00;;;;;;;4.40;4.00;;;16.40;99.90;;;;;;5025091;28;20177;-68
2022/11/07 12:47:42;;;;;;;3.97;3.67;;;16.40;99.90;;;;;;5030816;28;20250;-68
2022/11/07 12:50:37;;;;;;;5.33;3.57;;;16.50;99.90;;;;;;5014432;28;20176;-67
2022/11/07 12:53:18;;;;;;;3.67;3.47;;;16.70;99.90;;;;;;5010769;28;20180;-67
2022/11/07 12:55:48;;;;;;;4.67;4.27;;;16.80;99.90;;;;;;4992470;28;20306;-68
2022/11/07 12:58:24;;;;;;;4.10;3.70;;;16.60;99.90;;;;;;4992268;28;20192;-67
2022/11/07 13:00:52;;;;;;;5.93;3.70;;;16.60;99.90;;;;;;4990944;28;20201;-67
2022/11/07 13:03:30;;;;;;;3.83;3.53;;;16.60;99.90;;;;;;5012142;28;20882;-67
2022/11/07 13:06:34;;;;;;;3.40;3.03;;;16.50;99.90;;;;;;5026485;28;20183;-67
2022/11/07 13:09:32;;;;;;;3.80;3.60;;;16.50;99.90;;;;;;5016216;28;20223;-68
2022/11/07 13:12:10;;;;;;;5.10;3.43;;;16.40;99.90;;;;;;4992259;28;20203;-67